N11DL CBK7-CYBD
Flight info
| Callsign | N11DL |
|---|---|
| Flight time | 2h 12m |
| Altitude | 11500 |
| Route | DCT |
| Aircraft | AEST/L-SDFGRY/S |
Departure
| Time | 2026-04-16 14:19 |
|---|---|
| Airport | Mile 422 (Alaska Highway) Airport (CBK7) |
Arrival
| Time | 2026-04-16 16:31 |
|---|---|
| Airport | Bella Coola Airport (CYBD) |
| Time | Latitude | Longitude | Altitude | Speed | Heading |
|---|---|---|---|---|---|
| 2026-04-16 14:08 | 58.84826 | -125.23217 | 2311 ft | 0 kts | 197° |
| 2026-04-16 14:14 | 58.84825 | -125.23218 | 2457 ft | 1 kts | 197° |
| 2026-04-16 14:14 | 58.84799 | -125.23226 | 2460 ft | 7 kts | 180° |
| 2026-04-16 14:15 | 58.84761 | -125.23160 | 2461 ft | 10 kts | 115° |
| 2026-04-16 14:15 | 58.84742 | -125.23083 | 2466 ft | 4 kts | 53° |
| 2026-04-16 14:15 | 58.84752 | -125.23091 | 2462 ft | 0 kts | 284° |
| 2026-04-16 14:18 | 58.84753 | -125.23101 | 2461 ft | 13 kts | 282° |
| 2026-04-16 14:18 | 58.84836 | -125.23806 | 2470 ft | 80 kts | 285° |
| 2026-04-16 14:18 | 58.85032 | -125.24955 | 2612 ft | 99 kts | 284° |
| 2026-04-16 14:18 | 58.85222 | -125.26324 | 2949 ft | 109 kts | 283° |
| 2026-04-16 14:19 | 58.85423 | -125.27830 | 3228 ft | 118 kts | 284° |
| 2026-04-16 14:19 | 58.85703 | -125.29275 | 3641 ft | 113 kts | 294° |
| 2026-04-16 14:19 | 58.86055 | -125.30658 | 3938 ft | 115 kts | 294° |
| 2026-04-16 14:19 | 58.86393 | -125.32071 | 4165 ft | 117 kts | 290° |
| 2026-04-16 14:20 | 58.86715 | -125.33526 | 4383 ft | 118 kts | 290° |
| 2026-04-16 14:20 | 58.86932 | -125.34490 | 4523 ft | 118 kts | 290° |
| 2026-04-16 14:20 | 58.87418 | -125.35760 | 4781 ft | 120 kts | 320° |
| 2026-04-16 14:20 | 58.88065 | -125.36755 | 5168 ft | 118 kts | 301° |
| 2026-04-16 14:21 | 58.88187 | -125.38211 | 5571 ft | 113 kts | 247° |
| 2026-04-16 14:21 | 58.87654 | -125.39228 | 5929 ft | 110 kts | 207° |
| 2026-04-16 14:21 | 58.86906 | -125.39643 | 6167 ft | 115 kts | 193° |
| 2026-04-16 14:21 | 58.85862 | -125.40074 | 6468 ft | 117 kts | 210° |
| 2026-04-16 14:22 | 58.85370 | -125.40534 | 6613 ft | 117 kts | 211° |
| 2026-04-16 14:22 | 58.84640 | -125.41231 | 6829 ft | 118 kts | 213° |
| 2026-04-16 14:22 | 58.83954 | -125.42098 | 7066 ft | 118 kts | 220° |
| 2026-04-16 14:22 | 58.83301 | -125.43071 | 7291 ft | 119 kts | 227° |
| 2026-04-16 14:23 | 58.82691 | -125.44189 | 7530 ft | 123 kts | 228° |
| 2026-04-16 14:23 | 58.82068 | -125.45338 | 7780 ft | 125 kts | 228° |
| 2026-04-16 14:23 | 58.81456 | -125.46531 | 8056 ft | 125 kts | 232° |
| 2026-04-16 14:23 | 58.80870 | -125.47770 | 8328 ft | 125 kts | 232° |
| 2026-04-16 14:24 | 58.80282 | -125.48999 | 8601 ft | 125 kts | 232° |
| 2026-04-16 14:24 | 58.79688 | -125.50213 | 8851 ft | 124 kts | 232° |
| 2026-04-16 14:24 | 58.79199 | -125.51530 | 9120 ft | 122 kts | 247° |
| 2026-04-16 14:24 | 58.78827 | -125.52993 | 9360 ft | 121 kts | 248° |
| 2026-04-16 14:25 | 58.78457 | -125.54460 | 9592 ft | 122 kts | 248° |
| 2026-04-16 14:25 | 58.78083 | -125.55937 | 9831 ft | 123 kts | 248° |
| 2026-04-16 14:25 | 58.77702 | -125.57421 | 10002 ft | 125 kts | 248° |
| 2026-04-16 14:25 | 58.77239 | -125.58857 | 10140 ft | 130 kts | 231° |
| 2026-04-16 14:26 | 58.76554 | -125.60054 | 10298 ft | 134 kts | 228° |
| 2026-04-16 14:26 | 58.75839 | -125.61235 | 10493 ft | 136 kts | 228° |
| 2026-04-16 14:26 | 58.75118 | -125.62412 | 10671 ft | 136 kts | 228° |
| 2026-04-16 14:26 | 58.74395 | -125.63583 | 10846 ft | 136 kts | 228° |
| 2026-04-16 14:27 | 58.73656 | -125.64719 | 10980 ft | 137 kts | 216° |
| 2026-04-16 14:27 | 58.72706 | -125.65158 | 11115 ft | 145 kts | 195° |
| 2026-04-16 14:27 | 58.71697 | -125.65312 | 11321 ft | 147 kts | 193° |
| 2026-04-16 14:27 | 58.70665 | -125.65454 | 11476 ft | 151 kts | 194° |
| 2026-04-16 14:28 | 58.69584 | -125.65623 | 11518 ft | 162 kts | 194° |
| 2026-04-16 14:28 | 58.68421 | -125.65828 | 11485 ft | 173 kts | 194° |
| 2026-04-16 14:28 | 58.67188 | -125.66051 | 11486 ft | 182 kts | 193° |
| 2026-04-16 14:28 | 58.65904 | -125.66277 | 11482 ft | 188 kts | 193° |
| 2026-04-16 14:29 | 58.64592 | -125.66504 | 11481 ft | 191 kts | 193° |
| 2026-04-16 14:29 | 58.63267 | -125.66732 | 11479 ft | 192 kts | 193° |
| 2026-04-16 14:29 | 58.61936 | -125.66965 | 11477 ft | 192 kts | 193° |
| 2026-04-16 14:29 | 58.60614 | -125.67187 | 11492 ft | 191 kts | 193° |
| 2026-04-16 14:30 | 58.59286 | -125.67415 | 11492 ft | 193 kts | 193° |
| 2026-04-16 14:30 | 58.57959 | -125.67649 | 11477 ft | 194 kts | 193° |
| 2026-04-16 14:30 | 58.56613 | -125.67884 | 11484 ft | 194 kts | 193° |
| 2026-04-16 14:30 | 58.55265 | -125.68118 | 11482 ft | 195 kts | 193° |
| 2026-04-16 14:31 | 58.53916 | -125.68353 | 11485 ft | 194 kts | 193° |
| 2026-04-16 14:31 | 58.52568 | -125.68588 | 11476 ft | 194 kts | 193° |
| 2026-04-16 14:31 | 58.51224 | -125.68822 | 11485 ft | 194 kts | 193° |
| 2026-04-16 14:31 | 58.49879 | -125.69054 | 11490 ft | 194 kts | 193° |
| 2026-04-16 14:32 | 58.48536 | -125.69286 | 11491 ft | 194 kts | 193° |
| 2026-04-16 14:32 | 58.47191 | -125.69518 | 11502 ft | 194 kts | 193° |
| 2026-04-16 14:32 | 58.45861 | -125.69745 | 11614 ft | 189 kts | 193° |
| 2026-04-16 14:32 | 58.44560 | -125.69961 | 11744 ft | 185 kts | 193° |
| 2026-04-16 14:33 | 58.43299 | -125.70175 | 11938 ft | 180 kts | 193° |
| 2026-04-16 14:33 | 58.42066 | -125.70385 | 12112 ft | 176 kts | 193° |
| 2026-04-16 14:33 | 58.40871 | -125.70582 | 12341 ft | 169 kts | 194° |
| 2026-04-16 14:33 | 58.39714 | -125.70774 | 12549 ft | 164 kts | 194° |
| 2026-04-16 14:34 | 58.38587 | -125.70964 | 12701 ft | 161 kts | 195° |
| 2026-04-16 14:34 | 58.37498 | -125.71152 | 12863 ft | 158 kts | 195° |
| 2026-04-16 14:34 | 58.36396 | -125.71362 | 13035 ft | 157 kts | 195° |
| 2026-04-16 14:34 | 58.35327 | -125.71556 | 13173 ft | 156 kts | 194° |
| 2026-04-16 14:35 | 58.34230 | -125.71824 | 12533 ft | 163 kts | 192° |
| 2026-04-16 14:35 | 58.33108 | -125.72106 | 12690 ft | 162 kts | 188° |
| 2026-04-16 14:35 | 58.31983 | -125.72284 | 12828 ft | 164 kts | 187° |
| 2026-04-16 14:35 | 58.30842 | -125.72378 | 12959 ft | 162 kts | 189° |
| 2026-04-16 14:36 | 58.29727 | -125.72498 | 13078 ft | 159 kts | 191° |
| 2026-04-16 14:36 | 58.28625 | -125.72666 | 13177 ft | 159 kts | 192° |
| 2026-04-16 14:36 | 58.27523 | -125.72857 | 13288 ft | 159 kts | 192° |
| 2026-04-16 14:36 | 58.26419 | -125.73059 | 13419 ft | 159 kts | 192° |
| 2026-04-16 14:37 | 58.25313 | -125.73261 | 13535 ft | 160 kts | 192° |
| 2026-04-16 14:37 | 58.24183 | -125.73466 | 13553 ft | 167 kts | 192° |
| 2026-04-16 14:37 | 58.22990 | -125.73686 | 13516 ft | 177 kts | 192° |
| 2026-04-16 14:37 | 58.21751 | -125.73908 | 13506 ft | 180 kts | 192° |
| 2026-04-16 14:38 | 58.20488 | -125.74130 | 13520 ft | 184 kts | 192° |
| 2026-04-16 14:38 | 58.19204 | -125.74352 | 13516 ft | 187 kts | 191° |
| 2026-04-16 14:38 | 58.17902 | -125.74575 | 13510 ft | 188 kts | 191° |
| 2026-04-16 14:38 | 58.16609 | -125.74795 | 13511 ft | 189 kts | 191° |
| 2026-04-16 14:39 | 58.15277 | -125.75019 | 13513 ft | 190 kts | 191° |
| 2026-04-16 14:39 | 58.13959 | -125.75241 | 13513 ft | 191 kts | 191° |
| 2026-04-16 14:39 | 58.12636 | -125.75465 | 13513 ft | 192 kts | 191° |
| 2026-04-16 14:39 | 58.11307 | -125.75695 | 13507 ft | 192 kts | 191° |
| 2026-04-16 14:40 | 58.09990 | -125.75918 | 13521 ft | 193 kts | 191° |
| 2026-04-16 14:40 | 58.08645 | -125.76143 | 13511 ft | 195 kts | 191° |
| 2026-04-16 14:40 | 58.07293 | -125.76372 | 13512 ft | 196 kts | 191° |
| 2026-04-16 14:40 | 58.05933 | -125.76605 | 13500 ft | 197 kts | 191° |
| 2026-04-16 14:41 | 58.04571 | -125.76834 | 13522 ft | 196 kts | 191° |
| 2026-04-16 14:41 | 58.03208 | -125.77064 | 13512 ft | 197 kts | 191° |
| 2026-04-16 14:41 | 58.01840 | -125.77295 | 13510 ft | 197 kts | 191° |
| 2026-04-16 14:41 | 58.00471 | -125.77525 | 13514 ft | 198 kts | 191° |
| 2026-04-16 14:42 | 57.99099 | -125.77756 | 13508 ft | 198 kts | 191° |
| 2026-04-16 14:42 | 57.97727 | -125.77988 | 13505 ft | 197 kts | 191° |
| 2026-04-16 14:42 | 57.96367 | -125.78214 | 13517 ft | 197 kts | 191° |
| 2026-04-16 14:42 | 57.95003 | -125.78439 | 13509 ft | 197 kts | 191° |
| 2026-04-16 14:43 | 57.93638 | -125.78664 | 13510 ft | 197 kts | 191° |
| 2026-04-16 14:43 | 57.92276 | -125.78891 | 13521 ft | 197 kts | 191° |
| 2026-04-16 14:43 | 57.90908 | -125.79117 | 13510 ft | 197 kts | 191° |
| 2026-04-16 14:43 | 57.89542 | -125.79342 | 13512 ft | 197 kts | 191° |
| 2026-04-16 14:44 | 57.88176 | -125.79569 | 13520 ft | 197 kts | 191° |
| 2026-04-16 14:44 | 57.86814 | -125.79798 | 13522 ft | 197 kts | 191° |
| 2026-04-16 14:44 | 57.85448 | -125.80028 | 13524 ft | 197 kts | 191° |
| 2026-04-16 14:44 | 57.84082 | -125.80257 | 13522 ft | 197 kts | 191° |
| 2026-04-16 14:45 | 57.82716 | -125.80486 | 13519 ft | 197 kts | 191° |
| 2026-04-16 14:45 | 57.81348 | -125.80717 | 13522 ft | 197 kts | 191° |
| 2026-04-16 14:45 | 57.79979 | -125.80949 | 13518 ft | 198 kts | 191° |
| 2026-04-16 14:45 | 57.78626 | -125.81174 | 13524 ft | 197 kts | 191° |
| 2026-04-16 14:46 | 57.77257 | -125.81400 | 13524 ft | 198 kts | 191° |
| 2026-04-16 14:46 | 57.75883 | -125.81629 | 13518 ft | 199 kts | 191° |
| 2026-04-16 14:46 | 57.74507 | -125.81859 | 13524 ft | 199 kts | 191° |
| 2026-04-16 14:46 | 57.73127 | -125.82088 | 13518 ft | 199 kts | 191° |
| 2026-04-16 14:47 | 57.71749 | -125.82315 | 13514 ft | 198 kts | 191° |
| 2026-04-16 14:47 | 57.70376 | -125.82543 | 13523 ft | 197 kts | 191° |
| 2026-04-16 14:47 | 57.69007 | -125.82770 | 13506 ft | 197 kts | 191° |
| 2026-04-16 14:47 | 57.67641 | -125.82996 | 13490 ft | 197 kts | 191° |
| 2026-04-16 14:48 | 57.66279 | -125.83225 | 13493 ft | 196 kts | 191° |
| 2026-04-16 14:48 | 57.64921 | -125.83453 | 13493 ft | 196 kts | 191° |
| 2026-04-16 14:48 | 57.63560 | -125.83680 | 13499 ft | 196 kts | 191° |
| 2026-04-16 14:48 | 57.62196 | -125.83905 | 13495 ft | 197 kts | 191° |
| 2026-04-16 14:49 | 57.60827 | -125.84129 | 13493 ft | 198 kts | 191° |
| 2026-04-16 14:49 | 57.59458 | -125.84352 | 13491 ft | 197 kts | 189° |
| 2026-04-16 14:49 | 57.58084 | -125.84528 | 13495 ft | 198 kts | 188° |
| 2026-04-16 14:49 | 57.56709 | -125.84687 | 13500 ft | 198 kts | 188° |
| 2026-04-16 14:50 | 57.55335 | -125.84866 | 13504 ft | 198 kts | 189° |
| 2026-04-16 14:50 | 57.53962 | -125.85067 | 13502 ft | 198 kts | 189° |
| 2026-04-16 14:50 | 57.52593 | -125.85280 | 13500 ft | 197 kts | 190° |
| 2026-04-16 14:50 | 57.51246 | -125.85499 | 13508 ft | 197 kts | 190° |
| 2026-04-16 14:51 | 57.49876 | -125.85723 | 13506 ft | 197 kts | 190° |
| 2026-04-16 14:51 | 57.48516 | -125.85951 | 13524 ft | 197 kts | 190° |
| 2026-04-16 14:51 | 57.47145 | -125.86180 | 13515 ft | 198 kts | 190° |
| 2026-04-16 14:51 | 57.45769 | -125.86407 | 13510 ft | 199 kts | 190° |
| 2026-04-16 14:53 | 57.36182 | -125.87975 | 13509 ft | 196 kts | 190° |
| 2026-04-16 14:53 | 57.34823 | -125.88198 | 13503 ft | 196 kts | 190° |
| 2026-04-16 14:54 | 57.33472 | -125.88416 | 13515 ft | 195 kts | 190° |
| 2026-04-16 14:54 | 57.32116 | -125.88635 | 13509 ft | 195 kts | 190° |
| 2026-04-16 14:54 | 57.30760 | -125.88855 | 13524 ft | 196 kts | 190° |
| 2026-04-16 14:54 | 57.29394 | -125.89080 | 13515 ft | 197 kts | 190° |
| 2026-04-16 14:55 | 57.28033 | -125.89304 | 13520 ft | 196 kts | 190° |
| 2026-04-16 14:55 | 57.26675 | -125.89523 | 13531 ft | 197 kts | 190° |
| 2026-04-16 14:55 | 57.25309 | -125.89760 | 13512 ft | 197 kts | 191° |
| 2026-04-16 14:55 | 57.23954 | -125.90028 | 13522 ft | 196 kts | 192° |
| 2026-04-16 14:56 | 57.22596 | -125.90300 | 13524 ft | 196 kts | 192° |
| 2026-04-16 14:56 | 57.21236 | -125.90555 | 13516 ft | 197 kts | 191° |
| 2026-04-16 14:56 | 57.19876 | -125.90793 | 13515 ft | 196 kts | 191° |
| 2026-04-16 14:56 | 57.18538 | -125.91014 | 13525 ft | 196 kts | 191° |
| 2026-04-16 14:57 | 57.17164 | -125.91236 | 13519 ft | 196 kts | 191° |
| 2026-04-16 14:57 | 57.15807 | -125.91452 | 13515 ft | 195 kts | 191° |
| 2026-04-16 14:57 | 57.14457 | -125.91669 | 13520 ft | 194 kts | 191° |
| 2026-04-16 14:57 | 57.13112 | -125.91883 | 13526 ft | 194 kts | 191° |
| 2026-04-16 14:58 | 57.11762 | -125.92100 | 13526 ft | 195 kts | 191° |
| 2026-04-16 14:58 | 57.09071 | -125.92533 | 13534 ft | 195 kts | 191° |
| 2026-04-16 14:58 | 57.07717 | -125.92749 | 13535 ft | 196 kts | 191° |
| 2026-04-16 14:59 | 57.06353 | -125.92968 | 13534 ft | 196 kts | 191° |
| 2026-04-16 14:59 | 57.04993 | -125.93187 | 13529 ft | 196 kts | 191° |
| 2026-04-16 14:59 | 57.03631 | -125.93406 | 13529 ft | 196 kts | 191° |
| 2026-04-16 14:59 | 57.02271 | -125.93622 | 13536 ft | 196 kts | 191° |
| 2026-04-16 15:00 | 57.00908 | -125.93839 | 13527 ft | 197 kts | 190° |
| 2026-04-16 15:00 | 56.99546 | -125.94053 | 13530 ft | 196 kts | 191° |
| 2026-04-16 15:00 | 56.98187 | -125.94271 | 13534 ft | 196 kts | 191° |
| 2026-04-16 15:00 | 56.96827 | -125.94491 | 13526 ft | 196 kts | 191° |
| 2026-04-16 15:01 | 56.95468 | -125.94707 | 13534 ft | 196 kts | 191° |
| 2026-04-16 15:01 | 56.94110 | -125.94923 | 13531 ft | 196 kts | 191° |
| 2026-04-16 15:01 | 56.92754 | -125.95138 | 13528 ft | 195 kts | 191° |
| 2026-04-16 15:01 | 56.91417 | -125.95350 | 13527 ft | 194 kts | 191° |
| 2026-04-16 15:02 | 56.90070 | -125.95563 | 13532 ft | 194 kts | 191° |
| 2026-04-16 15:02 | 56.88725 | -125.95779 | 13541 ft | 195 kts | 191° |
| 2026-04-16 15:02 | 56.87375 | -125.95992 | 13539 ft | 195 kts | 191° |
| 2026-04-16 15:02 | 56.86026 | -125.96205 | 13537 ft | 194 kts | 191° |
| 2026-04-16 15:03 | 56.84678 | -125.96418 | 13540 ft | 194 kts | 191° |
| 2026-04-16 15:03 | 56.83334 | -125.96630 | 13538 ft | 194 kts | 191° |
| 2026-04-16 15:03 | 56.81995 | -125.96843 | 13542 ft | 193 kts | 191° |
| 2026-04-16 15:03 | 56.80656 | -125.97054 | 13553 ft | 194 kts | 191° |
| 2026-04-16 15:04 | 56.79309 | -125.97267 | 13548 ft | 194 kts | 191° |
| 2026-04-16 15:04 | 56.77958 | -125.97483 | 13550 ft | 195 kts | 191° |
| 2026-04-16 15:04 | 56.76605 | -125.97698 | 13555 ft | 196 kts | 191° |
| 2026-04-16 15:04 | 56.75243 | -125.97912 | 13554 ft | 197 kts | 191° |
| 2026-04-16 15:05 | 56.73877 | -125.98128 | 13548 ft | 197 kts | 191° |
| 2026-04-16 15:05 | 56.72509 | -125.98346 | 13550 ft | 198 kts | 190° |
| 2026-04-16 15:05 | 56.71138 | -125.98566 | 13550 ft | 198 kts | 190° |
| 2026-04-16 15:05 | 56.69764 | -125.98783 | 13549 ft | 198 kts | 190° |
| 2026-04-16 15:06 | 56.68393 | -125.98996 | 13549 ft | 198 kts | 190° |
| 2026-04-16 15:06 | 56.67019 | -125.99209 | 13545 ft | 198 kts | 190° |
| 2026-04-16 15:06 | 56.65648 | -125.99422 | 13550 ft | 198 kts | 190° |
| 2026-04-16 15:06 | 56.64274 | -125.99633 | 13553 ft | 199 kts | 190° |
| 2026-04-16 15:07 | 56.62911 | -125.99846 | 13546 ft | 199 kts | 190° |
| 2026-04-16 15:07 | 56.61513 | -126.00065 | 13553 ft | 199 kts | 190° |
| 2026-04-16 15:07 | 56.60128 | -126.00281 | 13547 ft | 200 kts | 190° |
| 2026-04-16 15:07 | 56.58757 | -126.00497 | 13557 ft | 200 kts | 190° |
| 2026-04-16 15:08 | 56.57372 | -126.00713 | 13560 ft | 200 kts | 190° |
| 2026-04-16 15:08 | 56.55985 | -126.00930 | 13558 ft | 200 kts | 190° |
| 2026-04-16 15:08 | 56.54597 | -126.01147 | 13560 ft | 200 kts | 190° |
| 2026-04-16 15:08 | 56.53205 | -126.01365 | 13563 ft | 201 kts | 190° |
| 2026-04-16 15:09 | 56.51811 | -126.01584 | 13557 ft | 202 kts | 190° |
| 2026-04-16 15:09 | 56.50413 | -126.01799 | 13557 ft | 201 kts | 190° |
| 2026-04-16 15:09 | 56.49020 | -126.02014 | 13554 ft | 201 kts | 190° |
| 2026-04-16 15:09 | 56.47630 | -126.02230 | 13558 ft | 200 kts | 190° |
| 2026-04-16 15:10 | 56.46243 | -126.02446 | 13560 ft | 200 kts | 190° |
| 2026-04-16 15:10 | 56.44854 | -126.02662 | 13557 ft | 200 kts | 190° |
| 2026-04-16 15:10 | 56.43465 | -126.02877 | 13558 ft | 200 kts | 190° |
| 2026-04-16 15:10 | 56.42078 | -126.03091 | 13563 ft | 200 kts | 190° |
| 2026-04-16 15:11 | 56.40687 | -126.03306 | 13557 ft | 201 kts | 190° |
| 2026-04-16 15:11 | 56.39296 | -126.03524 | 13555 ft | 200 kts | 190° |
| 2026-04-16 15:11 | 56.38377 | -126.03665 | 13560 ft | 200 kts | 190° |
| 2026-04-16 15:11 | 56.36985 | -126.03878 | 13561 ft | 201 kts | 190° |
| 2026-04-16 15:12 | 56.35594 | -126.04091 | 13556 ft | 201 kts | 190° |
| 2026-04-16 15:12 | 56.34204 | -126.04305 | 13561 ft | 201 kts | 190° |
| 2026-04-16 15:12 | 56.32360 | -126.04592 | 13560 ft | 202 kts | 190° |
| 2026-04-16 15:12 | 56.31411 | -126.04739 | 13560 ft | 202 kts | 190° |
| 2026-04-16 15:13 | 56.30012 | -126.04955 | 13565 ft | 202 kts | 190° |
| 2026-04-16 15:13 | 56.28615 | -126.05171 | 13570 ft | 202 kts | 190° |
| 2026-04-16 15:13 | 56.27218 | -126.05386 | 13559 ft | 201 kts | 190° |
| 2026-04-16 15:13 | 56.25849 | -126.05596 | 13564 ft | 199 kts | 190° |
| 2026-04-16 15:14 | 56.24464 | -126.05806 | 13573 ft | 200 kts | 190° |
| 2026-04-16 15:14 | 56.23077 | -126.06017 | 13564 ft | 200 kts | 190° |
| 2026-04-16 15:14 | 56.21691 | -126.06230 | 13565 ft | 200 kts | 190° |
| 2026-04-16 15:14 | 56.20308 | -126.06442 | 13569 ft | 200 kts | 190° |
| 2026-04-16 15:15 | 56.18925 | -126.06652 | 13559 ft | 200 kts | 190° |
| 2026-04-16 15:15 | 56.17538 | -126.06864 | 13569 ft | 200 kts | 190° |
| 2026-04-16 15:15 | 56.16149 | -126.07076 | 13565 ft | 200 kts | 190° |
| 2026-04-16 15:15 | 56.14763 | -126.07288 | 13571 ft | 200 kts | 190° |
| 2026-04-16 15:16 | 56.13373 | -126.07501 | 13569 ft | 200 kts | 190° |
| 2026-04-16 15:16 | 56.11982 | -126.07715 | 13563 ft | 201 kts | 190° |
| 2026-04-16 15:16 | 56.10591 | -126.07925 | 13567 ft | 201 kts | 190° |
| 2026-04-16 15:16 | 56.09198 | -126.08138 | 13565 ft | 200 kts | 190° |
| 2026-04-16 15:17 | 56.07810 | -126.08351 | 13564 ft | 200 kts | 190° |
| 2026-04-16 15:17 | 56.06430 | -126.08560 | 13573 ft | 199 kts | 190° |
| 2026-04-16 15:17 | 56.05051 | -126.08773 | 13555 ft | 199 kts | 189° |
| 2026-04-16 15:17 | 56.03678 | -126.08978 | 13565 ft | 197 kts | 190° |
| 2026-04-16 15:18 | 56.02326 | -126.09179 | 13565 ft | 197 kts | 190° |
| 2026-04-16 15:18 | 56.00959 | -126.09386 | 13573 ft | 198 kts | 190° |
| 2026-04-16 15:18 | 55.99588 | -126.09592 | 13572 ft | 197 kts | 190° |
| 2026-04-16 15:18 | 55.98221 | -126.09801 | 13587 ft | 197 kts | 190° |
| 2026-04-16 15:19 | 55.96851 | -126.10007 | 13576 ft | 198 kts | 190° |
| 2026-04-16 15:19 | 55.95477 | -126.10214 | 13585 ft | 198 kts | 190° |
| 2026-04-16 15:19 | 55.94105 | -126.10420 | 13597 ft | 198 kts | 190° |
| 2026-04-16 15:19 | 55.92732 | -126.10629 | 13596 ft | 198 kts | 190° |
| 2026-04-16 15:20 | 55.91357 | -126.10841 | 13600 ft | 198 kts | 190° |
| 2026-04-16 15:20 | 55.89983 | -126.11049 | 13606 ft | 198 kts | 190° |
| 2026-04-16 15:20 | 55.88607 | -126.11257 | 13608 ft | 199 kts | 190° |
| 2026-04-16 15:20 | 55.87223 | -126.11465 | 13607 ft | 200 kts | 190° |
| 2026-04-16 15:21 | 55.85836 | -126.11674 | 13605 ft | 200 kts | 190° |
| 2026-04-16 15:21 | 55.84443 | -126.11884 | 13606 ft | 201 kts | 190° |
| 2026-04-16 15:21 | 55.83050 | -126.12092 | 13602 ft | 201 kts | 190° |
| 2026-04-16 15:21 | 55.81658 | -126.12300 | 13602 ft | 201 kts | 190° |
| 2026-04-16 15:22 | 55.80268 | -126.12507 | 13607 ft | 200 kts | 190° |
| 2026-04-16 15:22 | 55.78880 | -126.12716 | 13603 ft | 200 kts | 190° |
| 2026-04-16 15:22 | 55.77489 | -126.12923 | 13602 ft | 200 kts | 190° |
| 2026-04-16 15:22 | 55.76123 | -126.13128 | 13603 ft | 200 kts | 190° |
| 2026-04-16 15:23 | 55.74737 | -126.13336 | 13601 ft | 200 kts | 190° |
| 2026-04-16 15:23 | 55.73325 | -126.13550 | 13479 ft | 206 kts | 190° |
| 2026-04-16 15:23 | 55.71889 | -126.13771 | 13418 ft | 208 kts | 190° |
| 2026-04-16 15:23 | 55.70440 | -126.13995 | 13357 ft | 209 kts | 189° |
| 2026-04-16 15:24 | 55.68985 | -126.14213 | 13313 ft | 211 kts | 189° |
| 2026-04-16 15:24 | 55.67523 | -126.14427 | 13263 ft | 211 kts | 189° |
| 2026-04-16 15:24 | 55.66049 | -126.14645 | 13150 ft | 215 kts | 189° |
| 2026-04-16 15:24 | 55.64541 | -126.14871 | 13002 ft | 219 kts | 189° |
| 2026-04-16 15:25 | 55.63017 | -126.15098 | 12867 ft | 221 kts | 189° |
| 2026-04-16 15:25 | 55.61478 | -126.15327 | 12742 ft | 223 kts | 189° |
| 2026-04-16 15:25 | 55.59928 | -126.15556 | 12614 ft | 224 kts | 189° |
| 2026-04-16 15:25 | 55.58375 | -126.15790 | 12486 ft | 224 kts | 189° |
| 2026-04-16 15:26 | 55.56818 | -126.16023 | 12366 ft | 225 kts | 189° |
| 2026-04-16 15:26 | 55.55257 | -126.16252 | 12252 ft | 225 kts | 189° |
| 2026-04-16 15:26 | 55.53698 | -126.16478 | 12131 ft | 225 kts | 189° |
| 2026-04-16 15:26 | 55.52138 | -126.16711 | 12013 ft | 225 kts | 189° |
| 2026-04-16 15:27 | 55.50579 | -126.16945 | 11899 ft | 225 kts | 188° |
| 2026-04-16 15:27 | 55.49041 | -126.17170 | 11790 ft | 225 kts | 188° |
| 2026-04-16 15:27 | 55.47484 | -126.17403 | 11678 ft | 224 kts | 188° |
| 2026-04-16 15:27 | 55.45927 | -126.17633 | 11570 ft | 224 kts | 188° |
| 2026-04-16 15:28 | 55.44374 | -126.17860 | 11472 ft | 223 kts | 188° |
| 2026-04-16 15:28 | 55.42845 | -126.18084 | 11491 ft | 218 kts | 188° |
| 2026-04-16 15:28 | 55.41347 | -126.18299 | 11498 ft | 214 kts | 188° |
| 2026-04-16 15:28 | 55.39865 | -126.18511 | 11508 ft | 212 kts | 188° |
| 2026-04-16 15:29 | 55.38398 | -126.18723 | 11504 ft | 211 kts | 188° |
| 2026-04-16 15:29 | 55.36938 | -126.18935 | 11502 ft | 210 kts | 188° |
| 2026-04-16 15:29 | 55.35486 | -126.19147 | 11511 ft | 209 kts | 188° |
| 2026-04-16 15:29 | 55.34038 | -126.19355 | 11503 ft | 208 kts | 188° |
| 2026-04-16 15:30 | 55.32595 | -126.19559 | 11505 ft | 208 kts | 188° |
| 2026-04-16 15:30 | 55.31152 | -126.19770 | 11506 ft | 208 kts | 188° |
| 2026-04-16 15:30 | 55.29714 | -126.19984 | 11509 ft | 207 kts | 188° |
| 2026-04-16 15:30 | 55.28278 | -126.20195 | 11516 ft | 207 kts | 188° |
| 2026-04-16 15:31 | 55.26845 | -126.20404 | 11514 ft | 207 kts | 188° |
| 2026-04-16 15:31 | 55.25412 | -126.20614 | 11516 ft | 207 kts | 189° |
| 2026-04-16 15:31 | 55.23977 | -126.20825 | 11514 ft | 207 kts | 188° |
| 2026-04-16 15:31 | 55.22541 | -126.21035 | 11513 ft | 207 kts | 188° |
| 2026-04-16 15:32 | 55.21105 | -126.21246 | 11515 ft | 207 kts | 189° |
| 2026-04-16 15:32 | 55.19665 | -126.21451 | 11513 ft | 207 kts | 189° |
| 2026-04-16 15:32 | 55.18229 | -126.21659 | 11514 ft | 207 kts | 189° |
| 2026-04-16 15:32 | 55.16790 | -126.21869 | 11516 ft | 208 kts | 189° |
| 2026-04-16 15:33 | 55.15370 | -126.22077 | 11514 ft | 208 kts | 189° |
| 2026-04-16 15:33 | 55.13929 | -126.22288 | 11515 ft | 208 kts | 189° |
| 2026-04-16 15:33 | 55.12485 | -126.22497 | 11516 ft | 208 kts | 189° |
| 2026-04-16 15:33 | 55.11041 | -126.22706 | 11514 ft | 208 kts | 189° |
| 2026-04-16 15:34 | 55.09596 | -126.22914 | 11513 ft | 208 kts | 189° |
| 2026-04-16 15:34 | 55.08154 | -126.23122 | 11515 ft | 208 kts | 189° |
| 2026-04-16 15:34 | 55.06714 | -126.23329 | 11513 ft | 208 kts | 189° |
| 2026-04-16 15:34 | 55.05272 | -126.23536 | 11515 ft | 208 kts | 189° |
| 2026-04-16 15:35 | 55.03832 | -126.23744 | 11513 ft | 208 kts | 189° |
| 2026-04-16 15:35 | 55.02387 | -126.23952 | 11514 ft | 208 kts | 189° |
| 2026-04-16 15:35 | 55.00949 | -126.24159 | 11516 ft | 208 kts | 189° |
| 2026-04-16 15:35 | 54.99525 | -126.24365 | 11516 ft | 208 kts | 189° |
| 2026-04-16 15:36 | 54.98064 | -126.24576 | 11512 ft | 208 kts | 189° |
| 2026-04-16 15:36 | 54.96623 | -126.24781 | 11514 ft | 208 kts | 189° |
| 2026-04-16 15:36 | 54.95184 | -126.24981 | 11514 ft | 208 kts | 189° |
| 2026-04-16 15:36 | 54.93743 | -126.25187 | 11513 ft | 207 kts | 189° |
| 2026-04-16 15:37 | 54.92326 | -126.25393 | 11515 ft | 207 kts | 189° |
| 2026-04-16 15:37 | 54.90888 | -126.25602 | 11514 ft | 208 kts | 189° |
| 2026-04-16 15:37 | 54.89447 | -126.25810 | 11513 ft | 207 kts | 189° |
| 2026-04-16 15:37 | 54.88010 | -126.26017 | 11514 ft | 207 kts | 189° |
| 2026-04-16 15:38 | 54.86576 | -126.26224 | 11513 ft | 207 kts | 189° |
| 2026-04-16 15:38 | 54.85144 | -126.26429 | 11515 ft | 207 kts | 189° |
| 2026-04-16 15:38 | 54.83710 | -126.26636 | 11514 ft | 207 kts | 189° |
| 2026-04-16 15:38 | 54.82279 | -126.26842 | 11514 ft | 206 kts | 189° |
| 2026-04-16 15:39 | 54.80848 | -126.27047 | 11514 ft | 206 kts | 189° |
| 2026-04-16 15:39 | 54.79416 | -126.27250 | 11522 ft | 206 kts | 189° |
| 2026-04-16 15:39 | 54.77987 | -126.27452 | 11526 ft | 206 kts | 189° |
| 2026-04-16 15:39 | 54.76555 | -126.27656 | 11523 ft | 206 kts | 189° |
| 2026-04-16 15:40 | 54.75125 | -126.27859 | 11524 ft | 206 kts | 189° |
| 2026-04-16 15:40 | 54.73694 | -126.28061 | 11526 ft | 207 kts | 189° |
| 2026-04-16 15:40 | 54.72258 | -126.28265 | 11522 ft | 207 kts | 189° |
| 2026-04-16 15:40 | 54.70841 | -126.28465 | 11522 ft | 207 kts | 189° |
| 2026-04-16 15:41 | 54.69408 | -126.28667 | 11525 ft | 207 kts | 189° |
| 2026-04-16 15:41 | 54.67975 | -126.28870 | 11523 ft | 207 kts | 189° |
| 2026-04-16 15:41 | 54.66543 | -126.29074 | 11525 ft | 207 kts | 189° |
| 2026-04-16 15:41 | 54.65110 | -126.29276 | 11523 ft | 207 kts | 189° |
| 2026-04-16 15:42 | 54.63676 | -126.29478 | 11521 ft | 207 kts | 189° |
| 2026-04-16 15:42 | 54.62242 | -126.29680 | 11523 ft | 206 kts | 189° |
| 2026-04-16 15:42 | 54.60811 | -126.29882 | 11520 ft | 207 kts | 189° |
| 2026-04-16 15:42 | 54.59379 | -126.30085 | 11521 ft | 207 kts | 189° |
| 2026-04-16 15:43 | 54.57945 | -126.30287 | 11522 ft | 206 kts | 189° |
| 2026-04-16 15:43 | 54.56514 | -126.30489 | 11523 ft | 206 kts | 189° |
| 2026-04-16 15:43 | 54.55086 | -126.30690 | 11526 ft | 206 kts | 189° |
| 2026-04-16 15:43 | 54.53661 | -126.30891 | 11533 ft | 205 kts | 189° |
| 2026-04-16 15:44 | 54.52233 | -126.31093 | 11531 ft | 206 kts | 189° |
| 2026-04-16 15:44 | 54.50806 | -126.31295 | 11531 ft | 206 kts | 189° |
| 2026-04-16 15:44 | 54.49379 | -126.31495 | 11530 ft | 206 kts | 189° |
| 2026-04-16 15:44 | 54.47966 | -126.31692 | 11530 ft | 206 kts | 189° |
| 2026-04-16 15:45 | 54.46539 | -126.31891 | 11530 ft | 206 kts | 189° |
| 2026-04-16 15:45 | 54.45113 | -126.32090 | 11530 ft | 206 kts | 189° |
| 2026-04-16 15:45 | 54.43687 | -126.32292 | 11531 ft | 206 kts | 189° |
| 2026-04-16 15:45 | 54.42261 | -126.32492 | 11530 ft | 206 kts | 189° |
| 2026-04-16 15:46 | 54.40837 | -126.32691 | 11531 ft | 206 kts | 189° |
| 2026-04-16 15:46 | 54.39409 | -126.32891 | 11532 ft | 206 kts | 189° |
| 2026-04-16 15:46 | 54.37981 | -126.33090 | 11531 ft | 206 kts | 189° |
| 2026-04-16 15:46 | 54.36553 | -126.33288 | 11528 ft | 206 kts | 189° |
| 2026-04-16 15:47 | 54.35127 | -126.33487 | 11530 ft | 205 kts | 189° |
| 2026-04-16 15:47 | 54.33706 | -126.33686 | 11531 ft | 205 kts | 189° |
| 2026-04-16 15:47 | 54.32287 | -126.33883 | 11530 ft | 205 kts | 189° |
| 2026-04-16 15:47 | 54.30869 | -126.34077 | 11531 ft | 205 kts | 189° |
| 2026-04-16 15:48 | 54.29449 | -126.34274 | 11532 ft | 205 kts | 189° |
| 2026-04-16 15:48 | 54.28025 | -126.34472 | 11530 ft | 205 kts | 189° |
| 2026-04-16 15:48 | 54.26603 | -126.34669 | 11531 ft | 205 kts | 189° |
| 2026-04-16 15:48 | 54.25180 | -126.34866 | 11531 ft | 205 kts | 189° |
| 2026-04-16 15:49 | 54.23757 | -126.35063 | 11530 ft | 205 kts | 189° |
| 2026-04-16 15:49 | 54.22350 | -126.35257 | 11532 ft | 205 kts | 189° |
| 2026-04-16 15:49 | 54.20931 | -126.35455 | 11539 ft | 204 kts | 189° |
| 2026-04-16 15:49 | 54.19515 | -126.35654 | 11543 ft | 204 kts | 189° |
| 2026-04-16 15:50 | 54.18096 | -126.35852 | 11540 ft | 205 kts | 189° |
| 2026-04-16 15:50 | 54.16673 | -126.36048 | 11539 ft | 205 kts | 189° |
| 2026-04-16 15:50 | 54.15252 | -126.36244 | 11541 ft | 205 kts | 189° |
| 2026-04-16 15:50 | 54.13827 | -126.36439 | 11542 ft | 205 kts | 189° |
| 2026-04-16 15:51 | 54.12402 | -126.36636 | 11540 ft | 206 kts | 189° |
| 2026-04-16 15:51 | 54.10976 | -126.36833 | 11539 ft | 206 kts | 189° |
| 2026-04-16 15:51 | 54.09550 | -126.37030 | 11541 ft | 206 kts | 189° |
| 2026-04-16 15:51 | 54.08120 | -126.37226 | 11520 ft | 207 kts | 189° |
| 2026-04-16 15:52 | 54.06680 | -126.37425 | 11480 ft | 208 kts | 189° |
| 2026-04-16 15:52 | 54.05248 | -126.37622 | 11510 ft | 206 kts | 189° |
| 2026-04-16 15:52 | 54.03820 | -126.37817 | 11514 ft | 205 kts | 189° |
| 2026-04-16 15:52 | 54.02397 | -126.38011 | 11519 ft | 205 kts | 189° |
| 2026-04-16 15:53 | 54.00978 | -126.38206 | 11519 ft | 205 kts | 189° |
| 2026-04-16 15:53 | 53.99560 | -126.38402 | 11519 ft | 205 kts | 189° |
| 2026-04-16 15:53 | 53.98139 | -126.38597 | 11521 ft | 205 kts | 189° |
| 2026-04-16 15:53 | 53.96720 | -126.38790 | 11520 ft | 205 kts | 189° |
| 2026-04-16 15:54 | 53.95300 | -126.38983 | 11520 ft | 205 kts | 189° |
| 2026-04-16 15:54 | 53.93880 | -126.39176 | 11519 ft | 205 kts | 189° |
| 2026-04-16 15:54 | 53.92461 | -126.39370 | 11527 ft | 205 kts | 189° |
| 2026-04-16 15:54 | 53.91059 | -126.39562 | 11531 ft | 205 kts | 189° |
| 2026-04-16 15:55 | 53.89638 | -126.39756 | 11529 ft | 205 kts | 189° |
| 2026-04-16 15:55 | 53.88213 | -126.39950 | 11532 ft | 205 kts | 189° |
| 2026-04-16 15:55 | 53.86789 | -126.40144 | 11540 ft | 205 kts | 189° |
| 2026-04-16 15:55 | 53.85364 | -126.40338 | 11537 ft | 205 kts | 189° |
| 2026-04-16 15:56 | 53.83940 | -126.40531 | 11538 ft | 205 kts | 189° |
| 2026-04-16 15:56 | 53.82517 | -126.40725 | 11538 ft | 205 kts | 189° |
| 2026-04-16 15:56 | 53.81094 | -126.40918 | 11539 ft | 205 kts | 189° |
| 2026-04-16 15:56 | 53.79668 | -126.41110 | 11538 ft | 205 kts | 189° |
| 2026-04-16 15:57 | 53.78244 | -126.41304 | 11536 ft | 205 kts | 189° |
| 2026-04-16 15:57 | 53.76821 | -126.41499 | 11546 ft | 204 kts | 189° |
| 2026-04-16 15:57 | 53.75403 | -126.41692 | 11551 ft | 205 kts | 189° |
| 2026-04-16 15:57 | 53.73979 | -126.41885 | 11547 ft | 205 kts | 189° |
| 2026-04-16 15:58 | 53.72555 | -126.42081 | 11549 ft | 205 kts | 189° |
| 2026-04-16 15:58 | 53.71134 | -126.42277 | 11557 ft | 205 kts | 189° |
| 2026-04-16 15:58 | 53.69731 | -126.42467 | 11558 ft | 205 kts | 189° |
| 2026-04-16 15:58 | 53.68305 | -126.42659 | 11557 ft | 205 kts | 189° |
| 2026-04-16 15:59 | 53.65457 | -126.43038 | 11554 ft | 206 kts | 189° |
| 2026-04-16 15:59 | 53.64034 | -126.43228 | 11556 ft | 205 kts | 189° |
| 2026-04-16 15:59 | 53.62614 | -126.43419 | 11567 ft | 205 kts | 189° |
| 2026-04-16 16:00 | 53.61191 | -126.43609 | 11567 ft | 205 kts | 189° |
| 2026-04-16 16:00 | 53.59768 | -126.43801 | 11567 ft | 205 kts | 189° |
| 2026-04-16 16:00 | 53.58342 | -126.43994 | 11566 ft | 206 kts | 189° |
| 2026-04-16 16:00 | 53.56915 | -126.44185 | 11567 ft | 206 kts | 189° |
| 2026-04-16 16:01 | 53.55497 | -126.44374 | 11566 ft | 206 kts | 189° |
| 2026-04-16 16:01 | 53.54049 | -126.44568 | 11571 ft | 206 kts | 189° |
| 2026-04-16 16:01 | 53.52638 | -126.44762 | 11575 ft | 206 kts | 189° |
| 2026-04-16 16:01 | 53.51207 | -126.44956 | 11577 ft | 207 kts | 189° |
| 2026-04-16 16:02 | 53.49772 | -126.45147 | 11576 ft | 207 kts | 189° |
| 2026-04-16 16:02 | 53.48333 | -126.45337 | 11574 ft | 207 kts | 188° |
| 2026-04-16 16:02 | 53.46896 | -126.45527 | 11578 ft | 207 kts | 188° |
| 2026-04-16 16:02 | 53.45458 | -126.45718 | 11584 ft | 207 kts | 188° |
| 2026-04-16 16:03 | 53.44020 | -126.45911 | 11584 ft | 207 kts | 189° |
| 2026-04-16 16:03 | 53.42578 | -126.46103 | 11586 ft | 208 kts | 189° |
| 2026-04-16 16:03 | 53.41138 | -126.46297 | 11582 ft | 208 kts | 189° |
| 2026-04-16 16:03 | 53.39698 | -126.46489 | 11584 ft | 208 kts | 188° |
| 2026-04-16 16:04 | 53.38259 | -126.46680 | 11586 ft | 208 kts | 188° |
| 2026-04-16 16:04 | 53.36819 | -126.46870 | 11595 ft | 207 kts | 188° |
| 2026-04-16 16:04 | 53.35377 | -126.47061 | 11593 ft | 208 kts | 188° |
| 2026-04-16 16:04 | 53.33936 | -126.47251 | 11594 ft | 208 kts | 188° |
| 2026-04-16 16:05 | 53.32494 | -126.47442 | 11593 ft | 208 kts | 188° |
| 2026-04-16 16:05 | 53.31051 | -126.47634 | 11593 ft | 208 kts | 188° |
| 2026-04-16 16:05 | 53.29605 | -126.47826 | 11598 ft | 208 kts | 188° |
| 2026-04-16 16:05 | 53.28165 | -126.48016 | 11603 ft | 208 kts | 188° |
| 2026-04-16 16:06 | 53.26724 | -126.48207 | 11602 ft | 208 kts | 189° |
| 2026-04-16 16:06 | 53.25283 | -126.48399 | 11602 ft | 208 kts | 189° |
| 2026-04-16 16:06 | 53.23841 | -126.48589 | 11603 ft | 208 kts | 188° |
| 2026-04-16 16:06 | 53.22882 | -126.48645 | 11589 ft | 208 kts | 179° |
| 2026-04-16 16:07 | 53.20969 | -126.48066 | 11610 ft | 210 kts | 172° |
| 2026-04-16 16:07 | 53.20020 | -126.47734 | 11611 ft | 211 kts | 172° |
| 2026-04-16 16:07 | 53.18585 | -126.47215 | 11614 ft | 211 kts | 171° |
| 2026-04-16 16:07 | 53.16681 | -126.46522 | 11614 ft | 211 kts | 171° |
| 2026-04-16 16:08 | 53.15241 | -126.45996 | 11615 ft | 212 kts | 171° |
| 2026-04-16 16:08 | 53.13801 | -126.45471 | 11613 ft | 212 kts | 171° |
| 2026-04-16 16:08 | 53.12827 | -126.45116 | 11617 ft | 212 kts | 171° |
| 2026-04-16 16:08 | 53.11384 | -126.44594 | 11617 ft | 212 kts | 171° |
| 2026-04-16 16:09 | 53.09939 | -126.44075 | 11621 ft | 213 kts | 171° |
| 2026-04-16 16:09 | 53.08491 | -126.43558 | 11620 ft | 213 kts | 171° |
| 2026-04-16 16:09 | 53.07034 | -126.43041 | 11551 ft | 216 kts | 171° |
| 2026-04-16 16:09 | 53.05553 | -126.42517 | 11460 ft | 219 kts | 171° |
| 2026-04-16 16:10 | 53.04050 | -126.41987 | 11372 ft | 222 kts | 171° |
| 2026-04-16 16:10 | 53.02551 | -126.41456 | 11249 ft | 225 kts | 171° |
| 2026-04-16 16:10 | 53.01015 | -126.40915 | 11104 ft | 223 kts | 171° |
| 2026-04-16 16:10 | 52.99516 | -126.40387 | 10922 ft | 218 kts | 171° |
| 2026-04-16 16:11 | 52.98040 | -126.39864 | 10719 ft | 216 kts | 171° |
| 2026-04-16 16:11 | 52.96582 | -126.39352 | 10519 ft | 213 kts | 171° |
| 2026-04-16 16:11 | 52.95131 | -126.38839 | 10302 ft | 212 kts | 171° |
| 2026-04-16 16:11 | 52.93689 | -126.38331 | 10089 ft | 211 kts | 171° |
| 2026-04-16 16:12 | 52.92256 | -126.37830 | 9878 ft | 210 kts | 171° |
| 2026-04-16 16:12 | 52.90828 | -126.37325 | 9674 ft | 210 kts | 171° |
| 2026-04-16 16:12 | 52.89403 | -126.36818 | 9473 ft | 209 kts | 171° |
| 2026-04-16 16:12 | 52.87986 | -126.36318 | 9272 ft | 208 kts | 171° |
| 2026-04-16 16:13 | 52.86578 | -126.35819 | 9080 ft | 207 kts | 170° |
| 2026-04-16 16:13 | 52.85176 | -126.35323 | 8894 ft | 206 kts | 170° |
| 2026-04-16 16:13 | 52.83795 | -126.34739 | 8703 ft | 206 kts | 161° |
| 2026-04-16 16:13 | 52.82501 | -126.33751 | 8579 ft | 204 kts | 156° |
| 2026-04-16 16:14 | 52.81234 | -126.32719 | 8456 ft | 202 kts | 156° |
| 2026-04-16 16:14 | 52.79975 | -126.31696 | 8319 ft | 201 kts | 156° |
| 2026-04-16 16:14 | 52.78720 | -126.30679 | 8176 ft | 201 kts | 156° |
| 2026-04-16 16:14 | 52.77468 | -126.29663 | 8036 ft | 200 kts | 156° |
| 2026-04-16 16:15 | 52.76217 | -126.28649 | 7909 ft | 200 kts | 156° |
| 2026-04-16 16:15 | 52.74969 | -126.27638 | 7778 ft | 200 kts | 156° |
| 2026-04-16 16:15 | 52.73722 | -126.26626 | 7646 ft | 200 kts | 156° |
| 2026-04-16 16:15 | 52.72469 | -126.25616 | 7504 ft | 201 kts | 156° |
| 2026-04-16 16:16 | 52.71211 | -126.24609 | 7370 ft | 201 kts | 156° |
| 2026-04-16 16:16 | 52.69970 | -126.23617 | 7242 ft | 201 kts | 156° |
| 2026-04-16 16:16 | 52.68698 | -126.22599 | 7111 ft | 201 kts | 156° |
| 2026-04-16 16:16 | 52.67433 | -126.21630 | 6964 ft | 201 kts | 159° |
| 2026-04-16 16:17 | 52.66160 | -126.20810 | 6806 ft | 196 kts | 161° |
| 2026-04-16 16:17 | 52.64878 | -126.20161 | 6589 ft | 191 kts | 167° |
| 2026-04-16 16:17 | 52.63604 | -126.19604 | 6367 ft | 188 kts | 167° |
| 2026-04-16 16:17 | 52.62332 | -126.19130 | 6136 ft | 186 kts | 171° |
| 2026-04-16 16:18 | 52.61060 | -126.18746 | 5928 ft | 185 kts | 171° |
| 2026-04-16 16:18 | 52.59805 | -126.18369 | 5755 ft | 182 kts | 171° |
| 2026-04-16 16:18 | 52.58581 | -126.18025 | 5680 ft | 173 kts | 171° |
| 2026-04-16 16:18 | 52.57436 | -126.17706 | 5722 ft | 161 kts | 171° |
| 2026-04-16 16:19 | 52.56362 | -126.17408 | 5729 ft | 153 kts | 171° |
| 2026-04-16 16:19 | 52.55347 | -126.17125 | 5757 ft | 144 kts | 171° |
| 2026-04-16 16:19 | 52.54368 | -126.16853 | 5729 ft | 141 kts | 171° |
| 2026-04-16 16:19 | 52.53418 | -126.16588 | 5736 ft | 135 kts | 171° |
| 2026-04-16 16:20 | 52.52505 | -126.16334 | 5726 ft | 133 kts | 171° |
| 2026-04-16 16:20 | 52.51589 | -126.16078 | 5617 ft | 131 kts | 171° |
| 2026-04-16 16:20 | 52.50731 | -126.15890 | 5404 ft | 120 kts | 177° |
| 2026-04-16 16:20 | 52.49927 | -126.15825 | 5185 ft | 115 kts | 177° |
| 2026-04-16 16:21 | 52.49126 | -126.15789 | 4976 ft | 118 kts | 184° |
| 2026-04-16 16:21 | 52.48307 | -126.15900 | 4793 ft | 117 kts | 185° |
| 2026-04-16 16:21 | 52.47514 | -126.16013 | 4588 ft | 112 kts | 185° |
| 2026-04-16 16:21 | 52.46726 | -126.16124 | 4386 ft | 114 kts | 185° |
| 2026-04-16 16:22 | 52.45932 | -126.16271 | 4193 ft | 115 kts | 190° |
| 2026-04-16 16:22 | 52.45178 | -126.16717 | 4001 ft | 117 kts | 207° |
| 2026-04-16 16:22 | 52.44590 | -126.17616 | 3825 ft | 118 kts | 237° |
| 2026-04-16 16:22 | 52.44151 | -126.18747 | 3663 ft | 118 kts | 237° |
| 2026-04-16 16:23 | 52.43758 | -126.19918 | 3505 ft | 118 kts | 249° |
| 2026-04-16 16:23 | 52.43523 | -126.21206 | 3355 ft | 118 kts | 256° |
| 2026-04-16 16:23 | 52.43419 | -126.22544 | 3197 ft | 119 kts | 265° |
| 2026-04-16 16:23 | 52.43360 | -126.23898 | 3043 ft | 119 kts | 265° |
| 2026-04-16 16:24 | 52.43365 | -126.25249 | 2887 ft | 119 kts | 276° |
| 2026-04-16 16:24 | 52.43465 | -126.26594 | 2736 ft | 119 kts | 276° |
| 2026-04-16 16:24 | 52.43566 | -126.27936 | 2583 ft | 117 kts | 276° |
| 2026-04-16 16:24 | 52.43665 | -126.29236 | 2409 ft | 114 kts | 276° |
| 2026-04-16 16:25 | 52.43744 | -126.30507 | 2227 ft | 113 kts | 270° |
| 2026-04-16 16:25 | 52.43747 | -126.31795 | 2048 ft | 113 kts | 269° |
| 2026-04-16 16:25 | 52.43748 | -126.33073 | 1891 ft | 112 kts | 269° |
| 2026-04-16 16:25 | 52.43719 | -126.34348 | 1734 ft | 112 kts | 265° |
| 2026-04-16 16:26 | 52.43664 | -126.35625 | 1576 ft | 112 kts | 265° |
| 2026-04-16 16:26 | 52.43608 | -126.36894 | 1447 ft | 110 kts | 265° |
| 2026-04-16 16:26 | 52.43556 | -126.38123 | 1460 ft | 108 kts | 265° |
| 2026-04-16 16:26 | 52.43499 | -126.39347 | 1529 ft | 108 kts | 262° |
| 2026-04-16 16:27 | 52.43265 | -126.40491 | 1608 ft | 108 kts | 242° |
| 2026-04-16 16:27 | 52.42895 | -126.41585 | 1628 ft | 111 kts | 239° |
| 2026-04-16 16:27 | 52.42468 | -126.42656 | 1646 ft | 112 kts | 234° |
| 2026-04-16 16:27 | 52.42014 | -126.43688 | 1648 ft | 112 kts | 233° |
| 2026-04-16 16:28 | 52.41608 | -126.44769 | 1638 ft | 110 kts | 245° |
| 2026-04-16 16:28 | 52.41359 | -126.45929 | 1571 ft | 107 kts | 255° |
| 2026-04-16 16:28 | 52.41194 | -126.47117 | 1473 ft | 107 kts | 257° |
| 2026-04-16 16:28 | 52.41029 | -126.48315 | 1378 ft | 108 kts | 255° |
| 2026-04-16 16:29 | 52.40835 | -126.49506 | 1271 ft | 109 kts | 255° |
| 2026-04-16 16:29 | 52.40647 | -126.50708 | 1177 ft | 109 kts | 255° |
| 2026-04-16 16:29 | 52.40434 | -126.51882 | 1056 ft | 106 kts | 251° |
| 2026-04-16 16:29 | 52.40213 | -126.53019 | 904 ft | 104 kts | 251° |
| 2026-04-16 16:30 | 52.39974 | -126.54131 | 754 ft | 103 kts | 249° |
| 2026-04-16 16:30 | 52.39728 | -126.55206 | 631 ft | 101 kts | 249° |
| 2026-04-16 16:30 | 52.39484 | -126.56295 | 505 ft | 101 kts | 250° |
| 2026-04-16 16:30 | 52.39242 | -126.57378 | 361 ft | 102 kts | 250° |
| 2026-04-16 16:31 | 52.39010 | -126.58446 | 188 ft | 98 kts | 250° |
| 2026-04-16 16:31 | 52.38811 | -126.59338 | 133 ft | 66 kts | 250° |
| 2026-04-16 16:31 | 52.38706 | -126.59809 | 134 ft | 23 kts | 250° |
| 2026-04-16 16:31 | 52.38679 | -126.59994 | 133 ft | 12 kts | 250° |
| 2026-04-16 16:32 | 52.38690 | -126.59885 | 134 ft | 18 kts | 71° |
| 2026-04-16 16:32 | 52.38738 | -126.59673 | 135 ft | 22 kts | 70° |
| 2026-04-16 16:32 | 52.38792 | -126.59433 | 133 ft | 16 kts | 70° |
| 2026-04-16 16:32 | 52.38769 | -126.59241 | 132 ft | 16 kts | 114° |
| 2026-04-16 16:33 | 52.38769 | -126.59096 | 132 ft | 15 kts | 69° |
| 2026-04-16 16:33 | 52.38804 | -126.58936 | 132 ft | 12 kts | 74° |
| 2026-04-16 16:33 | 52.38801 | -126.58814 | 132 ft | 11 kts | 67° |
| 2026-04-16 16:33 | 52.38825 | -126.58710 | 132 ft | 8 kts | 116° |
| 2026-04-16 16:34 | 52.38804 | -126.58704 | 132 ft | 2 kts | 246° |
| 2026-04-16 16:34 | 52.38797 | -126.58727 | 132 ft | 0 kts | 248° |